sensor_id;sensor_type;location;lat;lon;timestamp;temperature;humidity
36690;DHT22;22676;51.120;3.702;2022-12-18T00:00:43;21.10;41.80
36690;DHT22;22676;51.120;3.702;2022-12-18T00:03:09;21.10;41.90
36690;DHT22;22676;51.120;3.702;2022-12-18T00:05:35;21.10;42.00
36690;DHT22;22676;51.120;3.702;2022-12-18T00:08:00;21.10;42.00
36690;DHT22;22676;51.120;3.702;2022-12-18T00:10:27;21.10;42.20
36690;DHT22;22676;51.120;3.702;2022-12-18T00:12:52;21.10;42.00
36690;DHT22;22676;51.120;3.702;2022-12-18T00:15:18;21.10;41.90
36690;DHT22;22676;51.120;3.702;2022-12-18T00:17:44;21.10;41.80
36690;DHT22;22676;51.120;3.702;2022-12-18T00:20:09;21.10;41.60
36690;DHT22;22676;51.120;3.702;2022-12-18T00:22:35;21.00;40.90
36690;DHT22;22676;51.120;3.702;2022-12-18T00:25:00;21.00;40.90
36690;DHT22;22676;51.120;3.702;2022-12-18T00:27:26;21.00;41.20
36690;DHT22;22676;51.120;3.702;2022-12-18T00:29:51;21.00;41.30
36690;DHT22;22676;51.120;3.702;2022-12-18T00:32:17;21.00;41.30
36690;DHT22;22676;51.120;3.702;2022-12-18T00:34:43;21.10;41.20
36690;DHT22;22676;51.120;3.702;2022-12-18T00:37:08;21.00;41.10
36690;DHT22;22676;51.120;3.702;2022-12-18T00:39:34;21.00;41.50
36690;DHT22;22676;51.120;3.702;2022-12-18T00:41:59;21.00;41.50
36690;DHT22;22676;51.120;3.702;2022-12-18T00:44:44;21.00;41.40
36690;DHT22;22676;51.120;3.702;2022-12-18T00:47:09;21.00;41.60
36690;DHT22;22676;51.120;3.702;2022-12-18T00:49:35;21.00;41.60
36690;DHT22;22676;51.120;3.702;2022-12-18T00:52:00;20.90;41.50
36690;DHT22;22676;51.120;3.702;2022-12-18T00:54:26;20.90;41.50
36690;DHT22;22676;51.120;3.702;2022-12-18T00:56:51;20.90;41.50
36690;DHT22;22676;51.120;3.702;2022-12-18T00:59:17;20.90;41.60
36690;DHT22;22676;51.120;3.702;2022-12-18T01:01:43;20.90;41.60
36690;DHT22;22676;51.120;3.702;2022-12-18T01:04:08;20.90;41.60
36690;DHT22;22676;51.120;3.702;2022-12-18T01:06:34;20.90;41.80
36690;DHT22;22676;51.120;3.702;2022-12-18T01:08:59;20.90;41.80
36690;DHT22;22676;51.120;3.702;2022-12-18T01:11:25;20.80;41.90
36690;DHT22;22676;51.120;3.702;2022-12-18T01:13:52;20.80;42.00
36690;DHT22;22676;51.120;3.702;2022-12-18T01:16:17;20.70;42.10
36690;DHT22;22676;51.120;3.702;2022-12-18T01:18:43;20.70;42.10
36690;DHT22;22676;51.120;3.702;2022-12-18T01:21:10;20.70;41.40
36690;DHT22;22676;51.120;3.702;2022-12-18T01:23:36;20.60;41.00
36690;DHT22;22676;51.120;3.702;2022-12-18T01:26:09;20.60;41.00
36690;DHT22;22676;51.120;3.702;2022-12-18T01:28:35;20.60;41.30
36690;DHT22;22676;51.120;3.702;2022-12-18T01:31:43;20.70;41.70
36690;DHT22;22676;51.120;3.702;2022-12-18T01:33:50;20.70;41.60
36690;DHT22;22676;51.120;3.702;2022-12-18T01:36:20;20.60;41.60
36690;DHT22;22676;51.120;3.702;2022-12-18T01:38:46;20.70;41.90
36690;DHT22;22676;51.120;3.702;2022-12-18T01:41:11;20.70;41.90
36690;DHT22;22676;51.120;3.702;2022-12-18T01:43:56;20.70;42.40
36690;DHT22;22676;51.120;3.702;2022-12-18T01:46:22;20.60;41.60
36690;DHT22;22676;51.120;3.702;2022-12-18T01:48:50;20.70;41.20
36690;DHT22;22676;51.120;3.702;2022-12-18T01:51:17;20.70;41.30
36690;DHT22;22676;51.120;3.702;2022-12-18T01:53:43;20.70;41.60
36690;DHT22;22676;51.120;3.702;2022-12-18T01:56:11;20.60;41.70
36690;DHT22;22676;51.120;3.702;2022-12-18T01:58:45;20.60;41.80
36690;DHT22;22676;51.120;3.702;2022-12-18T02:01:11;20.50;41.90
36690;DHT22;22676;51.120;3.702;2022-12-18T02:03:37;20.50;42.10
36690;DHT22;22676;51.120;3.702;2022-12-18T02:08:45;20.40;42.20
36690;DHT22;22676;51.120;3.702;2022-12-18T02:18:45;20.20;42.60
36690;DHT22;22676;51.120;3.702;2022-12-18T02:23:57;20.10;41.70
36690;DHT22;22676;51.120;3.702;2022-12-18T02:28:59;20.00;42.10
36690;DHT22;22676;51.120;3.702;2022-12-18T02:31:27;20.00;42.40
36690;DHT22;22676;51.120;3.702;2022-12-18T02:33:54;20.00;42.40
36690;DHT22;22676;51.120;3.702;2022-12-18T02:36:20;20.00;42.50
36690;DHT22;22676;51.120;3.702;2022-12-18T02:38:46;19.90;42.40
36690;DHT22;22676;51.120;3.702;2022-12-18T02:41:13;20.00;42.70
36690;DHT22;22676;51.120;3.702;2022-12-18T02:43:39;19.90;42.60
36690;DHT22;22676;51.120;3.702;2022-12-18T02:54:08;19.80;42.80
36690;DHT22;22676;51.120;3.702;2022-12-18T02:56:35;19.80;42.90
36690;DHT22;22676;51.120;3.702;2022-12-18T02:59:06;19.80;42.90
36690;DHT22;22676;51.120;3.702;2022-12-18T03:01:55;19.80;43.00
36690;DHT22;22676;51.120;3.702;2022-12-18T03:04:26;20.00;42.20
36690;DHT22;22676;51.120;3.702;2022-12-18T03:06:54;20.20;42.60
36690;DHT22;22676;51.120;3.702;2022-12-18T03:09:21;20.10;42.10
36690;DHT22;22676;51.120;3.702;2022-12-18T03:11:54;20.10;42.40
36690;DHT22;22676;51.120;3.702;2022-12-18T03:14:40;20.00;42.40
36690;DHT22;22676;51.120;3.702;2022-12-18T03:17:07;20.00;42.50
36690;DHT22;22676;51.120;3.702;2022-12-18T03:19:37;20.00;42.40
36690;DHT22;22676;51.120;3.702;2022-12-18T03:22:04;20.10;40.90
36690;DHT22;22676;51.120;3.702;2022-12-18T03:24:32;20.10;41.30
36690;DHT22;22676;51.120;3.702;2022-12-18T03:27:00;20.20;41.10
36690;DHT22;22676;51.120;3.702;2022-12-18T03:29:48;20.00;41.80
36690;DHT22;22676;51.120;3.702;2022-12-18T03:32:15;20.00;42.10
36690;DHT22;22676;51.120;3.702;2022-12-18T03:34:41;19.90;42.40
36690;DHT22;22676;51.120;3.702;2022-12-18T03:37:07;19.80;42.50
36690;DHT22;22676;51.120;3.702;2022-12-18T03:39:33;19.80;42.50
36690;DHT22;22676;51.120;3.702;2022-12-18T03:49:38;20.00;42.40
36690;DHT22;22676;51.120;3.702;2022-12-18T03:54:52;19.80;42.50
36690;DHT22;22676;51.120;3.702;2022-12-18T03:57:22;19.80;42.50
36690;DHT22;22676;51.120;3.702;2022-12-18T03:59:50;20.20;41.40
36690;DHT22;22676;51.120;3.702;2022-12-18T04:02:17;20.40;40.90
36690;DHT22;22676;51.120;3.702;2022-12-18T04:04:43;20.20;41.60
36690;DHT22;22676;51.120;3.702;2022-12-18T04:07:10;20.10;42.20
36690;DHT22;22676;51.120;3.702;2022-12-18T04:09:37;20.00;42.30
36690;DHT22;22676;51.120;3.702;2022-12-18T04:12:04;19.90;42.50
36690;DHT22;22676;51.120;3.702;2022-12-18T04:14:29;19.80;42.00
36690;DHT22;22676;51.120;3.702;2022-12-18T04:16:55;20.10;41.40
36690;DHT22;22676;51.120;3.702;2022-12-18T04:19:20;20.30;40.60
36690;DHT22;22676;51.120;3.702;2022-12-18T04:21:46;20.10;41.50
36690;DHT22;22676;51.120;3.702;2022-12-18T04:24:11;19.90;41.30
36690;DHT22;22676;51.120;3.702;2022-12-18T04:26:37;19.80;41.40
36690;DHT22;22676;51.120;3.702;2022-12-18T04:29:03;19.80;41.60
36690;DHT22;22676;51.120;3.702;2022-12-18T04:31:29;20.00;41.00
36690;DHT22;22676;51.120;3.702;2022-12-18T04:33:54;20.30;40.50
36690;DHT22;22676;51.120;3.702;2022-12-18T04:36:20;20.30;41.00
36690;DHT22;22676;51.120;3.702;2022-12-18T04:38:45;20.10;41.40
36690;DHT22;22676;51.120;3.702;2022-12-18T04:41:11;20.00;42.00
36690;DHT22;22676;51.120;3.702;2022-12-18T04:43:38;19.90;42.10
36690;DHT22;22676;51.120;3.702;2022-12-18T04:46:04;19.90;41.80
36690;DHT22;22676;51.120;3.702;2022-12-18T04:48:30;20.30;40.60
36690;DHT22;22676;51.120;3.702;2022-12-18T04:50:55;20.40;41.00
36690;DHT22;22676;51.120;3.702;2022-12-18T04:53:21;20.30;41.20
36690;DHT22;22676;51.120;3.702;2022-12-18T04:55:46;20.10;41.60
36690;DHT22;22676;51.120;3.702;2022-12-18T04:58:12;20.00;42.10
36690;DHT22;22676;51.120;3.702;2022-12-18T05:00:37;19.90;42.30
36690;DHT22;22676;51.120;3.702;2022-12-18T05:03:03;20.10;41.20
36690;DHT22;22676;51.120;3.702;2022-12-18T05:05:28;20.30;41.00
36690;DHT22;22676;51.120;3.702;2022-12-18T05:07:54;20.50;40.10
36690;DHT22;22676;51.120;3.702;2022-12-18T05:10:19;20.60;40.30
36690;DHT22;22676;51.120;3.702;2022-12-18T05:12:45;20.40;40.80
36690;DHT22;22676;51.120;3.702;2022-12-18T05:15:27;20.30;41.60
36690;DHT22;22676;51.120;3.702;2022-12-18T05:17:52;20.10;41.80
36690;DHT22;22676;51.120;3.702;2022-12-18T05:20:18;19.90;41.80
36690;DHT22;22676;51.120;3.702;2022-12-18T05:22:43;19.90;40.60
36690;DHT22;22676;51.120;3.702;2022-12-18T05:25:09;20.20;40.30
36690;DHT22;22676;51.120;3.702;2022-12-18T05:27:34;20.40;39.60
36690;DHT22;22676;51.120;3.702;2022-12-18T05:30:00;20.60;39.20
36690;DHT22;22676;51.120;3.702;2022-12-18T05:32:25;20.60;39.70
36690;DHT22;22676;51.120;3.702;2022-12-18T05:34:51;20.50;39.70
36690;DHT22;22676;51.120;3.702;2022-12-18T05:37:16;20.30;40.60
36690;DHT22;22676;51.120;3.702;2022-12-18T05:39:42;20.10;41.40
36690;DHT22;22676;51.120;3.702;2022-12-18T05:42:07;20.10;41.20
36690;DHT22;22676;51.120;3.702;2022-12-18T05:44:33;20.40;39.80
36690;DHT22;22676;51.120;3.702;2022-12-18T05:46:59;20.60;39.50
36690;DHT22;22676;51.120;3.702;2022-12-18T05:49:24;20.70;39.20
36690;DHT22;22676;51.120;3.702;2022-12-18T05:51:50;20.80;39.10
36690;DHT22;22676;51.120;3.702;2022-12-18T05:54:15;20.70;39.80
36690;DHT22;22676;51.120;3.702;2022-12-18T05:56:41;20.50;40.20
36690;DHT22;22676;51.120;3.702;2022-12-18T05:59:07;20.40;40.90
36690;DHT22;22676;51.120;3.702;2022-12-18T06:01:32;20.20;41.10
36690;DHT22;22676;51.120;3.702;2022-12-18T06:03:58;20.50;40.00
36690;DHT22;22676;51.120;3.702;2022-12-18T06:06:24;20.60;39.40
36690;DHT22;22676;51.120;3.702;2022-12-18T06:08:50;20.70;39.40
36690;DHT22;22676;51.120;3.702;2022-12-18T06:11:17;21.00;39.00
36690;DHT22;22676;51.120;3.702;2022-12-18T06:13:43;21.30;38.50
36690;DHT22;22676;51.120;3.702;2022-12-18T06:16:09;21.40;37.90
36690;DHT22;22676;51.120;3.702;2022-12-18T06:18:34;21.40;37.50
36690;DHT22;22676;51.120;3.702;2022-12-18T06:21:00;21.40;37.00
36690;DHT22;22676;51.120;3.702;2022-12-18T06:23:25;21.30;36.80
36690;DHT22;22676;51.120;3.702;2022-12-18T06:25:51;21.40;37.00
36690;DHT22;22676;51.120;3.702;2022-12-18T06:28:17;21.70;37.00
36690;DHT22;22676;51.120;3.702;2022-12-18T06:30:46;21.80;36.50
36690;DHT22;22676;51.120;3.702;2022-12-18T06:33:12;21.80;36.50
36690;DHT22;22676;51.120;3.702;2022-12-18T06:35:37;21.80;36.50
36690;DHT22;22676;51.120;3.702;2022-12-18T06:38:03;21.80;36.50
36690;DHT22;22676;51.120;3.702;2022-12-18T06:40:28;21.80;36.50
36690;DHT22;22676;51.120;3.702;2022-12-18T06:42:54;21.80;36.50
36690;DHT22;22676;51.120;3.702;2022-12-18T06:45:19;21.80;36.60
36690;DHT22;22676;51.120;3.702;2022-12-18T06:47:45;21.90;36.70
36690;DHT22;22676;51.120;3.702;2022-12-18T06:50:11;21.90;36.60
36690;DHT22;22676;51.120;3.702;2022-12-18T06:52:37;21.90;36.50
36690;DHT22;22676;51.120;3.702;2022-12-18T06:55:04;21.90;36.50
36690;DHT22;22676;51.120;3.702;2022-12-18T06:57:29;21.90;36.50
36690;DHT22;22676;51.120;3.702;2022-12-18T06:59:55;22.00;36.40
36690;DHT22;22676;51.120;3.702;2022-12-18T07:02:20;22.00;36.50
36690;DHT22;22676;51.120;3.702;2022-12-18T07:04:46;22.00;36.40
36690;DHT22;22676;51.120;3.702;2022-12-18T07:07:15;22.00;36.70
36690;DHT22;22676;51.120;3.702;2022-12-18T07:09:40;22.10;36.50
36690;DHT22;22676;51.120;3.702;2022-12-18T07:12:06;22.10;36.50
36690;DHT22;22676;51.120;3.702;2022-12-18T07:14:33;22.10;36.50
36690;DHT22;22676;51.120;3.702;2022-12-18T07:16:58;22.20;36.50
36690;DHT22;22676;51.120;3.702;2022-12-18T07:19:24;22.20;36.00
36690;DHT22;22676;51.120;3.702;2022-12-18T07:21:50;22.10;35.50
36690;DHT22;22676;51.120;3.702;2022-12-18T07:24:15;22.10;35.30
36690;DHT22;22676;51.120;3.702;2022-12-18T07:26:41;22.10;36.10
36690;DHT22;22676;51.120;3.702;2022-12-18T07:29:06;22.20;36.00
36690;DHT22;22676;51.120;3.702;2022-12-18T07:31:32;22.30;35.80
36690;DHT22;22676;51.120;3.702;2022-12-18T07:33:57;22.40;35.70
36690;DHT22;22676;51.120;3.702;2022-12-18T07:36:23;22.50;35.60
36690;DHT22;22676;51.120;3.702;2022-12-18T07:38:49;22.60;35.70
36690;DHT22;22676;51.120;3.702;2022-12-18T07:41:14;22.80;35.80
36690;DHT22;22676;51.120;3.702;2022-12-18T07:43:40;23.00;35.50
36690;DHT22;22676;51.120;3.702;2022-12-18T07:46:06;23.10;35.20
36690;DHT22;22676;51.120;3.702;2022-12-18T07:48:32;23.10;35.20
36690;DHT22;22676;51.120;3.702;2022-12-18T07:50:58;23.10;35.10
36690;DHT22;22676;51.120;3.702;2022-12-18T07:53:24;23.20;35.20
36690;DHT22;22676;51.120;3.702;2022-12-18T07:55:54;23.20;35.40
36690;DHT22;22676;51.120;3.702;2022-12-18T07:58:19;23.50;35.40
36690;DHT22;22676;51.120;3.702;2022-12-18T08:00:45;23.60;35.00
36690;DHT22;22676;51.120;3.702;2022-12-18T08:03:11;23.50;34.90
36690;DHT22;22676;51.120;3.702;2022-12-18T08:05:37;23.60;35.00
36690;DHT22;22676;51.120;3.702;2022-12-18T08:08:02;23.50;35.40
36690;DHT22;22676;51.120;3.702;2022-12-18T08:10:28;23.50;35.30
36690;DHT22;22676;51.120;3.702;2022-12-18T08:12:53;23.50;35.30
36690;DHT22;22676;51.120;3.702;2022-12-18T08:15:19;23.50;35.50
36690;DHT22;22676;51.120;3.702;2022-12-18T08:17:44;23.70;35.30
36690;DHT22;22676;51.120;3.702;2022-12-18T08:20:10;23.70;33.70
36690;DHT22;22676;51.120;3.702;2022-12-18T08:22:36;23.60;33.60
36690;DHT22;22676;51.120;3.702;2022-12-18T08:25:02;23.60;34.50
36690;DHT22;22676;51.120;3.702;2022-12-18T08:27:27;23.50;34.50
36690;DHT22;22676;51.120;3.702;2022-12-18T08:29:53;23.50;34.60
36690;DHT22;22676;51.120;3.702;2022-12-18T08:32:18;23.80;34.40
36690;DHT22;22676;51.120;3.702;2022-12-18T08:34:44;24.10;34.30
36690;DHT22;22676;51.120;3.702;2022-12-18T08:37:10;24.00;34.20
36690;DHT22;22676;51.120;3.702;2022-12-18T08:39:35;23.80;34.60
36690;DHT22;22676;51.120;3.702;2022-12-18T08:42:01;23.80;34.90
36690;DHT22;22676;51.120;3.702;2022-12-18T08:44:45;23.70;35.00
36690;DHT22;22676;51.120;3.702;2022-12-18T08:47:11;23.80;35.20
36690;DHT22;22676;51.120;3.702;2022-12-18T08:49:36;23.80;36.70
36690;DHT22;22676;51.120;3.702;2022-12-18T08:52:01;23.70;35.60
36690;DHT22;22676;51.120;3.702;2022-12-18T08:54:28;23.80;35.30
36690;DHT22;22676;51.120;3.702;2022-12-18T08:56:53;23.80;35.60
36690;DHT22;22676;51.120;3.702;2022-12-18T08:59:19;23.80;35.00
36690;DHT22;22676;51.120;3.702;2022-12-18T09:01:45;23.80;35.40
36690;DHT22;22676;51.120;3.702;2022-12-18T09:04:11;23.90;35.40
36690;DHT22;22676;51.120;3.702;2022-12-18T09:06:36;23.90;35.70
36690;DHT22;22676;51.120;3.702;2022-12-18T09:09:02;23.90;35.50
36690;DHT22;22676;51.120;3.702;2022-12-18T09:11:29;23.80;36.80
36690;DHT22;22676;51.120;3.702;2022-12-18T09:13:55;23.80;36.30
36690;DHT22;22676;51.120;3.702;2022-12-18T09:16:21;23.70;36.40
36690;DHT22;22676;51.120;3.702;2022-12-18T09:18:47;23.60;36.30
36690;DHT22;22676;51.120;3.702;2022-12-18T09:21:14;23.60;35.60
36690;DHT22;22676;51.120;3.702;2022-12-18T09:23:39;23.60;35.80
36690;DHT22;22676;51.120;3.702;2022-12-18T09:26:05;23.40;36.00
36690;DHT22;22676;51.120;3.702;2022-12-18T09:28:31;23.50;35.90
36690;DHT22;22676;51.120;3.702;2022-12-18T09:30:56;23.60;36.00
36690;DHT22;22676;51.120;3.702;2022-12-18T09:33:22;23.20;36.80
36690;DHT22;22676;51.120;3.702;2022-12-18T09:35:47;23.00;37.30
36690;DHT22;22676;51.120;3.702;2022-12-18T09:38:14;23.00;37.60
36690;DHT22;22676;51.120;3.702;2022-12-18T09:40:41;22.90;37.50
36690;DHT22;22676;51.120;3.702;2022-12-18T09:43:09;22.70;38.10
36690;DHT22;22676;51.120;3.702;2022-12-18T09:45:47;23.00;38.30
36690;DHT22;22676;51.120;3.702;2022-12-18T09:48:19;22.80;38.40
36690;DHT22;22676;51.120;3.702;2022-12-18T09:50:46;22.60;38.10
36690;DHT22;22676;51.120;3.702;2022-12-18T09:53:15;22.70;38.10
36690;DHT22;22676;51.120;3.702;2022-12-18T09:55:42;22.60;38.40
36690;DHT22;22676;51.120;3.702;2022-12-18T10:00:36;22.50;38.70
36690;DHT22;22676;51.120;3.702;2022-12-18T10:03:03;22.60;38.60
36690;DHT22;22676;51.120;3.702;2022-12-18T10:08:13;22.90;38.30
36690;DHT22;22676;51.120;3.702;2022-12-18T10:10:46;23.20;37.70
36690;DHT22;22676;51.120;3.702;2022-12-18T10:15:58;23.20;38.00
36690;DHT22;22676;51.120;3.702;2022-12-18T10:21:17;23.30;38.00
36690;DHT22;22676;51.120;3.702;2022-12-18T10:24:22;23.50;36.50
36690;DHT22;22676;51.120;3.702;2022-12-18T10:26:36;23.30;37.10
36690;DHT22;22676;51.120;3.702;2022-12-18T10:29:04;23.40;37.10
36690;DHT22;22676;51.120;3.702;2022-12-18T10:31:32;23.40;37.20
36690;DHT22;22676;51.120;3.702;2022-12-18T10:33:58;23.50;37.20
36690;DHT22;22676;51.120;3.702;2022-12-18T10:36:24;23.30;37.20
36690;DHT22;22676;51.120;3.702;2022-12-18T10:38:49;23.30;37.20
36690;DHT22;22676;51.120;3.702;2022-12-18T10:43:44;23.50;37.30
36690;DHT22;22676;51.120;3.702;2022-12-18T10:51:04;22.80;39.30
36690;DHT22;22676;51.120;3.702;2022-12-18T10:53:31;23.00;38.80
36690;DHT22;22676;51.120;3.702;2022-12-18T10:55:59;23.20;38.80
36690;DHT22;22676;51.120;3.702;2022-12-18T10:58:27;23.20;38.50
36690;DHT22;22676;51.120;3.702;2022-12-18T11:01:12;23.30;38.80
36690;DHT22;22676;51.120;3.702;2022-12-18T11:03:45;23.30;38.40
36690;DHT22;22676;51.120;3.702;2022-12-18T11:06:21;23.40;38.80
36690;DHT22;22676;51.120;3.702;2022-12-18T11:09:23;23.40;38.80
36690;DHT22;22676;51.120;3.702;2022-12-18T11:11:41;23.30;38.80
36690;DHT22;22676;51.120;3.702;2022-12-18T11:14:11;23.40;38.70
36690;DHT22;22676;51.120;3.702;2022-12-18T11:16:42;23.30;38.70
36690;DHT22;22676;51.120;3.702;2022-12-18T11:19:17;23.10;38.40
36690;DHT22;22676;51.120;3.702;2022-12-18T11:21:45;23.30;37.60
36690;DHT22;22676;51.120;3.702;2022-12-18T11:24:30;23.30;36.60
36690;DHT22;22676;51.120;3.702;2022-12-18T11:27:03;23.20;37.00
36690;DHT22;22676;51.120;3.702;2022-12-18T11:29:31;23.10;37.30
36690;DHT22;22676;51.120;3.702;2022-12-18T11:34:42;23.10;37.80
36690;DHT22;22676;51.120;3.702;2022-12-18T11:37:11;23.10;37.80
36690;DHT22;22676;51.120;3.702;2022-12-18T11:39:37;23.00;37.90
36690;DHT22;22676;51.120;3.702;2022-12-18T11:49:51;23.90;33.60
36690;DHT22;22676;51.120;3.702;2022-12-18T11:55:01;23.80;33.00
36690;DHT22;22676;51.120;3.702;2022-12-18T12:00:10;23.50;32.60
36690;DHT22;22676;51.120;3.702;2022-12-18T12:07:48;23.00;32.30
36690;DHT22;22676;51.120;3.702;2022-12-18T12:10:33;23.00;32.90
36690;DHT22;22676;51.120;3.702;2022-12-18T12:18:17;23.20;32.40
36690;DHT22;22676;51.120;3.702;2022-12-18T12:23:15;23.50;31.70
36690;DHT22;22676;51.120;3.702;2022-12-18T12:25:46;23.40;31.50
36690;DHT22;22676;51.120;3.702;2022-12-18T12:33:40;23.10;32.20
36690;DHT22;22676;51.120;3.702;2022-12-18T12:38:51;23.50;31.60
36690;DHT22;22676;51.120;3.702;2022-12-18T12:41:20;23.60;31.90
36690;DHT22;22676;51.120;3.702;2022-12-18T12:44:07;23.60;31.80
36690;DHT22;22676;51.120;3.702;2022-12-18T12:46:36;23.40;32.40
36690;DHT22;22676;51.120;3.702;2022-12-18T12:49:02;23.50;32.30
36690;DHT22;22676;51.120;3.702;2022-12-18T12:51:33;23.40;32.30
36690;DHT22;22676;51.120;3.702;2022-12-18T12:54:00;23.60;32.50
36690;DHT22;22676;51.120;3.702;2022-12-18T12:56:36;23.80;32.40
36690;DHT22;22676;51.120;3.702;2022-12-18T12:59:11;23.80;32.60
36690;DHT22;22676;51.120;3.702;2022-12-18T13:06:48;23.80;33.50
36690;DHT22;22676;51.120;3.702;2022-12-18T13:09:15;23.70;33.70
36690;DHT22;22676;51.120;3.702;2022-12-18T13:11:41;23.90;33.80
36690;DHT22;22676;51.120;3.702;2022-12-18T13:14:27;23.90;34.00
36690;DHT22;22676;51.120;3.702;2022-12-18T13:17:13;23.80;34.40
36690;DHT22;22676;51.120;3.702;2022-12-18T13:19:39;23.90;34.60
36690;DHT22;22676;51.120;3.702;2022-12-18T13:22:04;24.00;34.30
36690;DHT22;22676;51.120;3.702;2022-12-18T13:24:30;24.00;34.60
36690;DHT22;22676;51.120;3.702;2022-12-18T13:26:56;24.10;34.50
36690;DHT22;22676;51.120;3.702;2022-12-18T13:29:43;24.10;34.80
36690;DHT22;22676;51.120;3.702;2022-12-18T13:32:19;24.00;34.80
36690;DHT22;22676;51.120;3.702;2022-12-18T13:34:45;24.00;35.30
36690;DHT22;22676;51.120;3.702;2022-12-18T13:39:55;24.10;35.60
36690;DHT22;22676;51.120;3.702;2022-12-18T13:45:34;24.20;35.20
36690;DHT22;22676;51.120;3.702;2022-12-18T13:47:53;24.30;35.10
36690;DHT22;22676;51.120;3.702;2022-12-18T13:50:23;24.40;34.00
36690;DHT22;22676;51.120;3.702;2022-12-18T13:52:50;24.50;33.30
36690;DHT22;22676;51.120;3.702;2022-12-18T13:55:16;24.60;33.40
36690;DHT22;22676;51.120;3.702;2022-12-18T13:57:43;24.30;34.70
36690;DHT22;22676;51.120;3.702;2022-12-18T14:00:28;24.30;35.10
36690;DHT22;22676;51.120;3.702;2022-12-18T14:02:55;24.20;34.40
36690;DHT22;22676;51.120;3.702;2022-12-18T14:05:24;23.80;35.10
36690;DHT22;22676;51.120;3.702;2022-12-18T14:07:50;23.60;36.30
36690;DHT22;22676;51.120;3.702;2022-12-18T14:10:17;23.40;36.40
36690;DHT22;22676;51.120;3.702;2022-12-18T14:12:49;23.10;37.00
36690;DHT22;22676;51.120;3.702;2022-12-18T14:18:00;23.40;36.90
36690;DHT22;22676;51.120;3.702;2022-12-18T14:20:27;23.30;37.00
36690;DHT22;22676;51.120;3.702;2022-12-18T14:22:53;23.10;38.70
36690;DHT22;22676;51.120;3.702;2022-12-18T14:25:20;23.00;39.10
36690;DHT22;22676;51.120;3.702;2022-12-18T14:27:51;22.80;40.10
36690;DHT22;22676;51.120;3.702;2022-12-18T14:33:02;22.90;41.30
36690;DHT22;22676;51.120;3.702;2022-12-18T14:35:27;22.90;41.40
36690;DHT22;22676;51.120;3.702;2022-12-18T14:37:53;22.80;40.90
36690;DHT22;22676;51.120;3.702;2022-12-18T14:40:19;22.70;41.20
36690;DHT22;22676;51.120;3.702;2022-12-18T14:42:44;22.60;42.00
36690;DHT22;22676;51.120;3.702;2022-12-18T14:47:54;22.40;42.30
36690;DHT22;22676;51.120;3.702;2022-12-18T14:50:20;22.40;41.90
36690;DHT22;22676;51.120;3.702;2022-12-18T14:52:45;22.40;42.10
36690;DHT22;22676;51.120;3.702;2022-12-18T14:55:17;22.50;40.80
36690;DHT22;22676;51.120;3.702;2022-12-18T14:57:43;22.70;42.90
36690;DHT22;22676;51.120;3.702;2022-12-18T15:00:18;22.90;42.10
36690;DHT22;22676;51.120;3.702;2022-12-18T15:02:48;23.00;41.60
36690;DHT22;22676;51.120;3.702;2022-12-18T15:07:51;23.20;41.70
36690;DHT22;22676;51.120;3.702;2022-12-18T15:10:17;23.20;41.30
36690;DHT22;22676;51.120;3.702;2022-12-18T15:12:44;23.20;41.60
36690;DHT22;22676;51.120;3.702;2022-12-18T15:18:05;23.20;42.30
36690;DHT22;22676;51.120;3.702;2022-12-18T15:20:54;23.30;41.70
36690;DHT22;22676;51.120;3.702;2022-12-18T15:23:28;23.30;41.70
36690;DHT22;22676;51.120;3.702;2022-12-18T15:26:07;23.40;41.60
36690;DHT22;22676;51.120;3.702;2022-12-18T15:28:54;23.40;41.60
36690;DHT22;22676;51.120;3.702;2022-12-18T15:31:24;23.40;41.60
36690;DHT22;22676;51.120;3.702;2022-12-18T15:36:19;23.50;41.80
36690;DHT22;22676;51.120;3.702;2022-12-18T15:38:48;23.60;41.60
36690;DHT22;22676;51.120;3.702;2022-12-18T15:41:14;23.60;41.70
36690;DHT22;22676;51.120;3.702;2022-12-18T15:43:40;23.70;41.50
36690;DHT22;22676;51.120;3.702;2022-12-18T15:46:08;23.80;41.00
36690;DHT22;22676;51.120;3.702;2022-12-18T15:48:35;23.90;41.00
36690;DHT22;22676;51.120;3.702;2022-12-18T15:51:01;24.10;39.10
36690;DHT22;22676;51.120;3.702;2022-12-18T15:53:29;24.10;38.40
36690;DHT22;22676;51.120;3.702;2022-12-18T15:55:55;24.10;39.00
36690;DHT22;22676;51.120;3.702;2022-12-18T15:58:39;24.00;39.60
36690;DHT22;22676;51.120;3.702;2022-12-18T16:01:05;23.60;40.20
36690;DHT22;22676;51.120;3.702;2022-12-18T16:03:32;23.30;40.40
36690;DHT22;22676;51.120;3.702;2022-12-18T16:05:58;23.20;41.10
36690;DHT22;22676;51.120;3.702;2022-12-18T16:08:25;23.20;40.90
36690;DHT22;22676;51.120;3.702;2022-12-18T16:10:51;23.20;40.60
36690;DHT22;22676;51.120;3.702;2022-12-18T16:13:16;22.90;42.10
36690;DHT22;22676;51.120;3.702;2022-12-18T16:15:44;22.90;42.10
36690;DHT22;22676;51.120;3.702;2022-12-18T16:18:09;22.70;43.00
36690;DHT22;22676;51.120;3.702;2022-12-18T16:20:35;22.60;42.90
36690;DHT22;22676;51.120;3.702;2022-12-18T16:23:00;22.60;43.50
36690;DHT22;22676;51.120;3.702;2022-12-18T16:25:27;22.60;43.40
36690;DHT22;22676;51.120;3.702;2022-12-18T16:27:53;22.50;43.90
36690;DHT22;22676;51.120;3.702;2022-12-18T16:30:23;22.20;44.20
36690;DHT22;22676;51.120;3.702;2022-12-18T16:32:49;22.20;43.80
36690;DHT22;22676;51.120;3.702;2022-12-18T16:35:15;22.20;42.80
36690;DHT22;22676;51.120;3.702;2022-12-18T16:37:41;21.80;42.50
36690;DHT22;22676;51.120;3.702;2022-12-18T16:40:08;21.80;43.20
36690;DHT22;22676;51.120;3.702;2022-12-18T16:42:38;21.80;43.90
36690;DHT22;22676;51.120;3.702;2022-12-18T16:45:04;22.00;43.80
36690;DHT22;22676;51.120;3.702;2022-12-18T16:47:29;22.20;43.00
36690;DHT22;22676;51.120;3.702;2022-12-18T16:49:55;22.20;42.60
36690;DHT22;22676;51.120;3.702;2022-12-18T16:52:20;22.30;41.50
36690;DHT22;22676;51.120;3.702;2022-12-18T16:54:46;22.40;41.30
36690;DHT22;22676;51.120;3.702;2022-12-18T16:57:13;22.40;42.10
36690;DHT22;22676;51.120;3.702;2022-12-18T16:59:38;22.40;42.00
36690;DHT22;22676;51.120;3.702;2022-12-18T17:02:04;22.40;42.50
36690;DHT22;22676;51.120;3.702;2022-12-18T17:04:30;22.40;42.40
36690;DHT22;22676;51.120;3.702;2022-12-18T17:06:56;22.40;42.60
36690;DHT22;22676;51.120;3.702;2022-12-18T17:09:21;22.50;42.50
36690;DHT22;22676;51.120;3.702;2022-12-18T17:11:54;22.60;43.10
36690;DHT22;22676;51.120;3.702;2022-12-18T17:17:38;22.60;42.80
36690;DHT22;22676;51.120;3.702;2022-12-18T17:20:17;22.50;40.80
36690;DHT22;22676;51.120;3.702;2022-12-18T17:25:57;22.40;41.10
36690;DHT22;22676;51.120;3.702;2022-12-18T17:28:29;22.40;41.20
36690;DHT22;22676;51.120;3.702;2022-12-18T17:31:00;22.50;40.70
36690;DHT22;22676;51.120;3.702;2022-12-18T17:33:32;22.50;41.60
36690;DHT22;22676;51.120;3.702;2022-12-18T17:35:57;22.50;41.80